Time;durP1;ratioP1;P1;durP2;ratioP2;P2;SDS_P1;SDS_P2;PMS_P1;PMS_P2;Temp;Humidity;BMP_temperature;BMP_pressure;BME280_temperature;BME280_humidity;BME280_pressure;Samples;Min_cycle;Max_cycle;Signal;HPM_P1;HPM_P2
2022/09/07 00:02:09;;;;;;;1.00;0.70;;;23.70;97.90;;;;;;5068728;28;45267;-73
2022/09/07 00:04:36;;;;;;;2.03;0.80;;;23.70;97.90;;;;;;5064643;28;45487;-73
2022/09/07 00:07:02;;;;;;;1.80;0.73;;;23.70;98.00;;;;;;5063171;28;46077;-72
2022/09/07 00:09:30;;;;;;;3.13;1.00;;;23.70;98.00;;;;;;5064123;28;45303;-72
2022/09/07 00:11:57;;;;;;;1.40;0.68;;;23.70;98.10;;;;;;5062752;28;45420;-72
2022/09/07 00:14:24;;;;;;;2.70;0.85;;;23.70;98.20;;;;;;5064001;28;45484;-72
2022/09/07 00:16:51;;;;;;;1.98;0.70;;;23.70;98.40;;;;;;5063921;28;47027;-72
2022/09/07 00:19:17;;;;;;;4.95;0.80;;;23.70;98.30;;;;;;5064533;28;45503;-72
2022/09/07 00:21:45;;;;;;;2.10;0.98;;;23.70;98.40;;;;;;5063389;28;45486;-72
2022/09/07 00:24:12;;;;;;;2.67;0.77;;;23.70;98.40;;;;;;5055539;28;45361;-72
2022/09/07 00:26:40;;;;;;;2.20;0.60;;;23.70;98.40;;;;;;5063500;28;47048;-72
2022/09/07 00:29:07;;;;;;;1.92;0.70;;;23.70;98.50;;;;;;5062242;28;45507;-72
2022/09/07 00:31:34;;;;;;;1.17;0.75;;;23.70;98.50;;;;;;5063210;28;45422;-72
2022/09/07 00:34:02;;;;;;;1.10;0.70;;;23.70;98.50;;;;;;5063688;28;45522;-72
2022/09/07 00:36:29;;;;;;;1.33;0.60;;;23.70;98.50;;;;;;5051865;28;47765;-72
2022/09/07 00:38:57;;;;;;;1.95;1.02;;;23.70;98.70;;;;;;5062600;28;45237;-71
2022/09/07 00:41:24;;;;;;;1.58;0.77;;;23.70;98.90;;;;;;5055814;28;45325;-72
2022/09/07 00:43:54;;;;;;;1.77;0.90;;;23.70;98.90;;;;;;5060327;28;45430;-72
2022/09/07 00:46:23;;;;;;;0.80;0.60;;;23.70;98.90;;;;;;5062123;28;46165;-73
2022/09/07 00:48:54;;;;;;;1.33;0.73;;;23.70;98.90;;;;;;5058425;28;45360;-72
2022/09/07 00:51:26;;;;;;;1.40;0.65;;;23.70;98.80;;;;;;5061471;28;45219;-73
2022/09/07 00:53:57;;;;;;;0.93;0.73;;;23.70;98.60;;;;;;5063080;28;45377;-72
2022/09/07 00:56:28;;;;;;;1.33;0.60;;;23.70;98.60;;;;;;5063882;28;46988;-73
2022/09/07 00:58:57;;;;;;;1.08;0.70;;;23.70;98.60;;;;;;5063486;28;45432;-72
2022/09/07 01:01:24;;;;;;;1.63;0.70;;;23.70;98.50;;;;;;5061961;28;45532;-72
2022/09/07 01:03:55;;;;;;;1.95;0.68;;;23.70;98.80;;;;;;5063122;28;45538;-72
2022/09/07 01:06:26;;;;;;;1.13;0.73;;;23.70;98.90;;;;;;5062936;28;45364;-72
2022/09/07 01:08:55;;;;;;;2.97;0.60;;;23.70;99.00;;;;;;5064187;28;45466;-70
2022/09/07 01:11:22;;;;;;;1.60;0.63;;;23.70;99.00;;;;;;5063007;28;45491;-72
2022/09/07 01:13:51;;;;;;;1.42;0.70;;;23.70;99.20;;;;;;5063077;28;45511;-72
2022/09/07 01:16:32;;;;;;;1.42;0.60;;;23.70;99.90;;;;;;5062103;28;46789;-73
2022/09/07 01:19:15;;;;;;;1.55;0.63;;;23.70;99.20;;;;;;5062743;28;45392;-72
2022/09/07 01:21:54;;;;;;;0.88;0.60;;;23.70;99.20;;;;;;5057769;28;45456;-72
2022/09/07 01:24:41;;;;;;;1.98;0.68;;;23.70;99.30;;;;;;5062159;28;45322;-72
2022/09/07 01:27:53;;;;;;;1.48;0.70;;;23.70;99.30;;;;;;5065146;28;45546;-72
2022/09/07 01:30:22;;;;;;;1.63;0.60;;;23.70;99.20;;;;;;5062370;28;46125;-72
2022/09/07 01:33:15;;;;;;;0.85;0.65;;;23.70;99.20;;;;;;5062925;28;45339;-72
2022/09/07 01:35:49;;;;;;;2.60;0.75;;;23.70;99.60;;;;;;5062868;28;45560;-72
2022/09/07 01:38:23;;;;;;;1.52;0.77;;;23.70;99.20;;;;;;5061681;28;48133;-72
2022/09/07 01:40:57;;;;;;;1.13;0.73;;;23.70;99.10;;;;;;5060669;28;45463;-72
2022/09/07 01:43:33;;;;;;;1.67;0.80;;;23.70;99.20;;;;;;5062314;28;45458;-73
2022/09/07 01:46:05;;;;;;;1.15;0.70;;;23.70;99.20;;;;;;5060024;28;45495;-73
2022/09/07 01:48:34;;;;;;;0.90;0.55;;;23.70;99.30;;;;;;5059119;28;45345;-73
2022/09/07 01:51:04;;;;;;;1.33;0.60;;;23.70;99.40;;;;;;5057074;28;45381;-73
2022/09/07 01:53:34;;;;;;;1.63;0.80;;;23.70;99.60;;;;;;5062476;28;45378;-72
2022/09/07 01:56:06;;;;;;;1.80;0.80;;;23.70;99.30;;;;;;5060197;28;45530;-72
2022/09/07 01:58:40;;;;;;;1.25;0.75;;;23.70;99.40;;;;;;5062406;28;46291;-72
2022/09/07 02:01:12;;;;;;;0.68;0.68;;;23.70;99.60;;;;;;5067897;28;45412;-70
2022/09/07 02:03:42;;;;;;;0.88;0.68;;;23.70;99.80;;;;;;5061695;28;45463;-72
2022/09/07 02:06:14;;;;;;;0.60;0.60;;;23.70;99.40;;;;;;5062176;28;45536;-72
2022/09/07 02:08:45;;;;;;;1.77;0.80;;;23.70;99.10;;;;;;5061989;28;48614;-72
2022/09/07 02:11:17;;;;;;;0.52;0.52;;;23.70;99.20;;;;;;5060757;28;45413;-72
2022/09/07 02:13:50;;;;;;;3.25;0.63;;;23.70;99.50;;;;;;5062640;28;45383;-72
2022/09/07 02:16:23;;;;;;;2.63;0.70;;;23.70;99.40;;;;;;5062882;28;45289;-72
2022/09/07 02:18:55;;;;;;;0.93;0.60;;;23.70;99.50;;;;;;5062880;28;45283;-73
2022/09/07 02:21:27;;;;;;;1.60;0.82;;;23.70;99.40;;;;;;5059232;28;45277;-73
2022/09/07 02:23:59;;;;;;;1.02;0.50;;;23.70;99.60;;;;;;5062142;28;45396;-73
2022/09/07 02:26:29;;;;;;;1.73;0.60;;;23.60;99.30;;;;;;5061041;28;45559;-73
2022/09/07 02:28:57;;;;;;;1.15;0.70;;;23.60;99.50;;;;;;5060262;28;46532;-73
2022/09/07 02:31:24;;;;;;;0.77;0.50;;;23.60;99.50;;;;;;5060716;28;45353;-73
2022/09/07 02:33:51;;;;;;;1.00;0.60;;;23.60;99.40;;;;;;5062497;28;45260;-73
2022/09/07 02:36:23;;;;;;;1.15;0.73;;;23.60;99.40;;;;;;5061482;28;45613;-73
2022/09/07 02:38:50;;;;;;;1.27;0.70;;;23.60;99.50;;;;;;5059896;28;46230;-73
2022/09/07 02:41:35;;;;;;;0.95;0.70;;;23.60;99.50;;;;;;5061733;28;45271;-73
2022/09/07 02:44:07;;;;;;;1.17;0.88;;;23.60;99.50;;;;;;5061404;28;45308;-72
2022/09/07 02:46:47;;;;;;;0.45;0.45;;;23.60;99.40;;;;;;5054954;28;45682;-72
2022/09/07 02:49:30;;;;;;;2.05;0.68;;;23.60;99.40;;;;;;5060902;28;47138;-73
2022/09/07 02:52:07;;;;;;;1.08;0.70;;;23.60;99.50;;;;;;5072032;28;45455;-73
2022/09/07 02:54:49;;;;;;;1.73;0.73;;;23.60;99.50;;;;;;5067401;28;45326;-73
2022/09/07 02:57:26;;;;;;;1.45;0.80;;;23.60;99.50;;;;;;5064437;28;45199;-73
2022/09/07 03:00:05;;;;;;;2.00;0.80;;;23.60;99.50;;;;;;5069151;28;47358;-73
2022/09/07 03:02:43;;;;;;;1.05;0.80;;;23.60;99.50;;;;;;5063784;28;45514;-72
2022/09/07 03:05:16;;;;;;;1.23;0.75;;;23.60;99.40;;;;;;5067362;28;45251;-74
2022/09/07 03:07:47;;;;;;;1.02;0.70;;;23.60;99.40;;;;;;5065341;28;45397;-73
2022/09/07 03:10:15;;;;;;;2.03;0.80;;;23.60;99.50;;;;;;5067833;28;46550;-72
2022/09/07 03:12:44;;;;;;;0.60;0.60;;;23.60;99.50;;;;;;5068180;28;45337;-73
2022/09/07 03:15:15;;;;;;;0.73;0.65;;;23.60;99.50;;;;;;5068024;28;45370;-73
2022/09/07 03:17:43;;;;;;;0.70;0.60;;;23.60;99.40;;;;;;5060334;28;45421;-73
2022/09/07 03:20:10;;;;;;;0.52;0.50;;;23.60;99.40;;;;;;5066889;28;46420;-73
2022/09/07 03:22:37;;;;;;;1.13;0.77;;;23.60;99.60;;;;;;5067973;28;45276;-73
2022/09/07 03:25:05;;;;;;;1.55;0.73;;;23.60;99.40;;;;;;5068954;28;45428;-73
2022/09/07 03:27:32;;;;;;;1.25;0.90;;;23.60;99.70;;;;;;5070722;28;45555;-74
2022/09/07 03:29:59;;;;;;;1.33;0.88;;;23.60;99.20;;;;;;5068331;28;45477;-73
2022/09/07 03:32:30;;;;;;;1.20;0.90;;;23.60;99.20;;;;;;5067877;28;45300;-73
2022/09/07 03:34:57;;;;;;;1.08;0.95;;;23.60;99.20;;;;;;5060781;28;45353;-73
2022/09/07 03:37:24;;;;;;;1.25;0.85;;;23.60;99.20;;;;;;5065791;28;45245;-73
2022/09/07 03:39:51;;;;;;;1.17;0.80;;;23.60;99.10;;;;;;5067942;28;46853;-73
2022/09/07 03:42:18;;;;;;;0.93;0.82;;;23.60;99.70;;;;;;5066075;28;45419;-73
2022/09/07 03:44:44;;;;;;;0.95;0.65;;;23.60;99.30;;;;;;5071466;28;45697;-71
2022/09/07 03:47:11;;;;;;;1.13;1.00;;;23.60;99.10;;;;;;5067528;28;45333;-72
2022/09/07 03:49:39;;;;;;;0.90;0.70;;;23.60;99.00;;;;;;5066670;28;46876;-73
2022/09/07 03:52:06;;;;;;;1.05;0.82;;;23.60;99.50;;;;;;5060702;28;45243;-73
2022/09/07 03:54:33;;;;;;;1.15;0.82;;;23.60;99.20;;;;;;5067984;28;45358;-73
2022/09/07 03:57:00;;;;;;;3.83;1.10;;;23.60;99.20;;;;;;5067694;28;45326;-74
2022/09/07 03:59:27;;;;;;;0.98;0.80;;;23.60;99.10;;;;;;5067254;28;48136;-73
2022/09/07 04:01:54;;;;;;;1.27;1.08;;;23.60;99.60;;;;;;5059455;28;45414;-72
2022/09/07 04:04:20;;;;;;;1.95;1.00;;;23.60;99.10;;;;;;5064923;28;45357;-73
2022/09/07 04:06:49;;;;;;;1.00;0.90;;;23.60;99.00;;;;;;5064365;28;45393;-73
2022/09/07 04:09:15;;;;;;;2.08;1.30;;;23.60;99.10;;;;;;5063906;28;46351;-72
2022/09/07 04:11:42;;;;;;;2.88;1.13;;;23.60;99.00;;;;;;5064442;28;45650;-73
2022/09/07 04:14:10;;;;;;;1.30;1.20;;;23.60;98.80;;;;;;5062472;28;45451;-72
2022/09/07 04:16:37;;;;;;;1.02;0.93;;;23.60;99.20;;;;;;5066591;28;45256;-73
2022/09/07 04:19:05;;;;;;;1.20;1.02;;;23.60;98.80;;;;;;5063241;28;45590;-73
2022/09/07 04:21:33;;;;;;;1.48;1.10;;;23.60;99.10;;;;;;5064761;28;45602;-73
2022/09/07 04:24:01;;;;;;;1.88;1.20;;;23.60;99.00;;;;;;5063659;28;45346;-72
2022/09/07 04:26:30;;;;;;;1.45;1.13;;;23.60;98.80;;;;;;5062996;28;45278;-73
2022/09/07 04:28:57;;;;;;;1.38;1.20;;;23.60;98.90;;;;;;5058600;28;45607;-74
2022/09/07 04:31:25;;;;;;;1.35;1.00;;;23.60;98.70;;;;;;5062197;28;45412;-72
2022/09/07 04:33:52;;;;;;;1.52;1.10;;;23.60;98.80;;;;;;5068106;28;45560;-74
2022/09/07 04:36:20;;;;;;;3.47;1.77;;;23.60;98.70;;;;;;5065270;28;45570;-73
2022/09/07 04:38:47;;;;;;;2.55;1.63;;;23.60;98.80;;;;;;5065656;28;47567;-74
2022/09/07 04:41:17;;;;;;;2.70;1.50;;;23.60;98.70;;;;;;5063352;28;45449;-73
2022/09/07 04:43:45;;;;;;;3.13;1.80;;;23.60;98.70;;;;;;5050162;28;45237;-73
2022/09/07 04:46:18;;;;;;;2.80;1.75;;;23.60;98.70;;;;;;5061538;28;45439;-74
2022/09/07 04:48:48;;;;;;;2.70;1.67;;;23.60;98.50;;;;;;5063692;28;45349;-73
2022/09/07 04:51:15;;;;;;;1.85;1.60;;;23.60;98.80;;;;;;5065612;28;45875;-73
2022/09/07 04:53:42;;;;;;;2.05;1.80;;;23.60;98.60;;;;;;5063108;28;45442;-73
2022/09/07 04:56:09;;;;;;;2.38;1.85;;;23.60;98.60;;;;;;5063639;28;45439;-73
2022/09/07 04:58:37;;;;;;;2.40;1.95;;;23.60;98.60;;;;;;5063131;28;46100;-72
2022/09/07 05:01:06;;;;;;;3.13;2.08;;;23.60;98.60;;;;;;5062750;28;45683;-73
2022/09/07 05:03:35;;;;;;;2.25;2.05;;;23.60;98.70;;;;;;5062788;28;45387;-74
2022/09/07 05:06:03;;;;;;;3.17;2.20;;;23.60;98.20;;;;;;5060169;28;45418;-72
2022/09/07 05:08:31;;;;;;;1.90;1.70;;;23.60;98.50;;;;;;5067815;28;46848;-72
2022/09/07 05:10:57;;;;;;;2.40;1.95;;;23.60;98.40;;;;;;5064009;28;45306;-73
2022/09/07 05:13:24;;;;;;;2.85;1.92;;;23.60;98.30;;;;;;5061667;28;45274;-73
2022/09/07 05:15:52;;;;;;;1.95;1.70;;;23.60;98.50;;;;;;5061743;28;45643;-73
2022/09/07 05:18:20;;;;;;;1.52;1.27;;;23.60;98.50;;;;;;5062402;28;46994;-73
2022/09/07 05:20:46;;;;;;;1.35;1.20;;;23.60;98.30;;;;;;5063481;28;45644;-73
2022/09/07 05:23:13;;;;;;;1.33;1.00;;;23.60;98.30;;;;;;5062125;28;45350;-73
2022/09/07 05:25:43;;;;;;;1.20;1.10;;;23.60;98.40;;;;;;5068258;28;45362;-74
2022/09/07 05:28:10;;;;;;;1.30;0.93;;;23.60;98.20;;;;;;5061347;28;48010;-74
2022/09/07 05:30:37;;;;;;;1.58;1.33;;;23.60;98.10;;;;;;5062205;28;45431;-72
2022/09/07 05:33:07;;;;;;;1.63;1.30;;;23.60;98.10;;;;;;5062940;28;45436;-74
2022/09/07 05:35:34;;;;;;;2.05;1.10;;;23.50;98.10;;;;;;5062565;28;45301;-74
2022/09/07 05:38:01;;;;;;;1.30;1.13;;;23.50;98.30;;;;;;5061793;28;47489;-74
2022/09/07 05:40:31;;;;;;;1.33;1.13;;;23.60;98.00;;;;;;5056701;28;45309;-73
2022/09/07 05:42:58;;;;;;;1.63;1.08;;;23.50;98.00;;;;;;5063571;28;45477;-73
2022/09/07 05:45:25;;;;;;;1.38;1.20;;;23.50;97.80;;;;;;5061735;28;46059;-73
2022/09/07 05:47:54;;;;;;;1.98;1.30;;;23.50;97.90;;;;;;5057044;28;46618;-73
2022/09/07 05:50:22;;;;;;;2.05;1.30;;;23.50;98.00;;;;;;5054004;28;45420;-73
2022/09/07 05:52:49;;;;;;;1.73;1.20;;;23.50;98.00;;;;;;5061914;28;45416;-74
2022/09/07 05:55:15;;;;;;;1.80;1.30;;;23.50;97.90;;;;;;5063256;28;45246;-74
2022/09/07 05:57:42;;;;;;;2.08;1.30;;;23.60;98.00;;;;;;5060412;28;46854;-73
2022/09/07 06:00:11;;;;;;;3.05;1.25;;;23.50;98.00;;;;;;5071625;28;45210;-74
2022/09/07 06:02:39;;;;;;;2.33;1.45;;;23.50;97.90;;;;;;5062546;28;45316;-74
2022/09/07 06:05:06;;;;;;;1.50;1.20;;;23.50;97.80;;;;;;5063504;28;45587;-73
2022/09/07 06:07:35;;;;;;;2.92;1.35;;;23.60;97.80;;;;;;5061979;28;47529;-73
2022/09/07 06:10:02;;;;;;;3.63;1.45;;;23.60;97.70;;;;;;5057413;28;45413;-74
2022/09/07 06:12:30;;;;;;;2.63;1.40;;;23.60;97.70;;;;;;5058252;28;45377;-73
2022/09/07 06:14:56;;;;;;;3.85;1.40;;;23.60;97.60;;;;;;5057522;28;45370;-69
2022/09/07 06:17:23;;;;;;;6.93;1.90;;;23.60;97.60;;;;;;5061692;28;47512;-74
2022/09/07 06:19:50;;;;;;;11.30;1.75;;;23.60;97.50;;;;;;5060949;28;45431;-74
2022/09/07 06:22:17;;;;;;;7.22;1.95;;;23.60;97.60;;;;;;5065242;28;45528;-73
2022/09/07 06:24:45;;;;;;;11.95;1.83;;;23.60;98.20;;;;;;5060603;28;45412;-74
2022/09/07 06:27:12;;;;;;;6.57;1.50;;;23.60;98.40;;;;;;5062157;28;45459;-74
2022/09/07 06:29:38;;;;;;;5.63;1.65;;;23.60;98.20;;;;;;5062358;28;45298;-73
2022/09/07 06:32:06;;;;;;;5.70;1.38;;;23.70;98.30;;;;;;5062746;28;45341;-73
2022/09/07 06:34:32;;;;;;;3.75;1.70;;;23.70;98.20;;;;;;5062581;28;45512;-73
2022/09/07 06:36:59;;;;;;;4.57;1.58;;;23.70;98.40;;;;;;5061701;28;46120;-73
2022/09/07 06:39:27;;;;;;;2.50;1.40;;;23.70;98.10;;;;;;5061038;28;45361;-74
2022/09/07 06:41:55;;;;;;;3.30;1.60;;;23.70;98.20;;;;;;5063187;28;45287;-73
2022/09/07 06:44:22;;;;;;;3.85;1.50;;;23.70;98.30;;;;;;5062862;28;45469;-74
2022/09/07 06:46:48;;;;;;;2.85;1.50;;;23.70;98.10;;;;;;5054835;28;47554;-74
2022/09/07 06:49:16;;;;;;;2.85;1.70;;;23.70;98.10;;;;;;5062756;28;45526;-74
2022/09/07 06:51:42;;;;;;;2.75;1.50;;;23.70;98.40;;;;;;5062706;28;45195;-74
2022/09/07 06:54:09;;;;;;;3.17;1.60;;;23.70;98.10;;;;;;5062236;28;45476;-74
2022/09/07 06:56:36;;;;;;;2.47;1.38;;;23.70;98.10;;;;;;5059196;28;45254;-74
2022/09/07 06:59:04;;;;;;;3.63;1.50;;;23.70;98.30;;;;;;5059728;28;45482;-74
2022/09/07 07:01:32;;;;;;;2.45;1.27;;;23.70;98.50;;;;;;5061125;28;45326;-74
2022/09/07 07:04:00;;;;;;;3.30;1.15;;;23.70;98.80;;;;;;5062917;28;45638;-74
2022/09/07 07:06:33;;;;;;;1.90;1.48;;;23.70;98.50;;;;;;5059420;28;47861;-74
2022/09/07 07:08:59;;;;;;;1.52;1.05;;;23.70;98.60;;;;;;5059534;28;45302;-74
2022/09/07 07:11:26;;;;;;;4.28;1.10;;;23.70;98.70;;;;;;5059899;28;45455;-74
2022/09/07 07:13:53;;;;;;;2.38;1.13;;;23.80;99.10;;;;;;5060595;28;45321;-73
2022/09/07 07:16:21;;;;;;;2.15;1.02;;;23.80;99.00;;;;;;5056427;28;47497;-74
2022/09/07 07:18:51;;;;;;;3.38;1.25;;;23.80;98.90;;;;;;5060098;28;45222;-74
2022/09/07 07:21:18;;;;;;;1.98;1.02;;;23.80;99.00;;;;;;5062976;28;45561;-74
2022/09/07 07:23:50;;;;;;;3.42;0.90;;;23.80;99.10;;;;;;5057841;28;45465;-74
2022/09/07 07:26:19;;;;;;;1.95;0.80;;;23.80;99.10;;;;;;5062761;28;45504;-74
2022/09/07 07:28:47;;;;;;;2.67;1.10;;;23.80;98.80;;;;;;5061647;28;45400;-74
2022/09/07 07:31:15;;;;;;;3.35;1.00;;;23.80;99.10;;;;;;5061773;28;45375;-74
2022/09/07 07:33:45;;;;;;;1.52;0.70;;;23.80;98.90;;;;;;5062585;28;45778;-74
2022/09/07 07:36:14;;;;;;;1.52;0.90;;;23.80;98.80;;;;;;5061816;28;46809;-74
2022/09/07 07:38:42;;;;;;;2.67;0.70;;;23.80;98.90;;;;;;5063499;28;45673;-73
2022/09/07 07:41:10;;;;;;;1.55;0.98;;;23.80;99.20;;;;;;5063145;28;45340;-73
2022/09/07 07:43:37;;;;;;;1.05;0.70;;;23.80;99.10;;;;;;5062051;28;45553;-74
2022/09/07 07:46:05;;;;;;;1.80;0.80;;;23.80;99.30;;;;;;5063199;28;47300;-74
2022/09/07 07:48:33;;;;;;;1.65;0.60;;;23.80;99.40;;;;;;5063831;28;45916;-73
2022/09/07 07:51:03;;;;;;;1.75;0.90;;;23.80;99.90;;;;;;5065063;28;45497;-75
2022/09/07 07:53:33;;;;;;;2.38;1.00;;;23.80;99.90;;;;;;5061941;28;45429;-74
2022/09/07 07:56:00;;;;;;;1.98;1.20;;;23.80;99.80;;;;;;5065373;28;45429;-74
2022/09/07 07:58:27;;;;;;;0.90;0.50;;;23.80;99.70;;;;;;5064047;28;45456;-74
2022/09/07 08:00:54;;;;;;;1.85;0.70;;;23.80;99.90;;;;;;5065827;28;45290;-74
2022/09/07 08:03:21;;;;;;;0.80;0.60;;;23.70;99.50;;;;;;5064882;28;45270;-73
2022/09/07 08:05:48;;;;;;;1.20;0.70;;;23.80;99.60;;;;;;5065048;28;47371;-74
2022/09/07 08:08:16;;;;;;;0.82;0.57;;;23.70;99.50;;;;;;5059327;28;45415;-74
2022/09/07 08:10:44;;;;;;;0.98;0.63;;;23.70;99.50;;;;;;5064824;28;45241;-74
2022/09/07 08:13:11;;;;;;;0.80;0.60;;;23.70;99.60;;;;;;5065805;28;45253;-74
2022/09/07 08:15:43;;;;;;;1.90;0.80;;;23.80;99.70;;;;;;5064750;28;48190;-74
2022/09/07 08:18:10;;;;;;;0.70;0.50;;;23.70;99.50;;;;;;5064051;28;45439;-74
2022/09/07 08:20:37;;;;;;;1.77;0.75;;;23.80;99.60;;;;;;5064996;28;45436;-74
2022/09/07 08:23:03;;;;;;;0.88;0.55;;;23.80;99.70;;;;;;5065192;28;45536;-74
2022/09/07 08:25:31;;;;;;;2.22;0.57;;;23.80;99.50;;;;;;5064979;28;46417;-74
2022/09/07 08:27:58;;;;;;;1.30;0.60;;;23.80;99.60;;;;;;5064505;28;45567;-74
2022/09/07 08:30:25;;;;;;;1.80;0.60;;;23.80;99.50;;;;;;5063961;28;45460;-73
2022/09/07 08:32:52;;;;;;;1.00;0.60;;;23.80;99.50;;;;;;5069677;28;45247;-73
2022/09/07 08:35:19;;;;;;;2.33;0.70;;;23.80;99.60;;;;;;5063886;28;47647;-73
2022/09/07 08:37:45;;;;;;;1.35;0.60;;;23.80;99.40;;;;;;5064571;28;45470;-74
2022/09/07 08:40:16;;;;;;;1.17;0.60;;;23.80;99.50;;;;;;5064261;28;45269;-73
2022/09/07 08:42:58;;;;;;;1.05;0.50;;;23.80;99.70;;;;;;5064996;28;45436;-73
2022/09/07 08:45:29;;;;;;;0.82;0.50;;;23.80;99.70;;;;;;5063727;28;46611;-73
2022/09/07 08:47:58;;;;;;;0.60;0.60;;;23.80;99.80;;;;;;5063256;28;45277;-74
2022/09/07 08:50:32;;;;;;;1.30;0.85;;;23.80;99.90;;;;;;5064478;28;45292;-73
2022/09/07 08:53:04;;;;;;;1.02;0.63;;;23.80;99.90;;;;;;5063286;28;45322;-73
2022/09/07 08:55:33;;;;;;;1.17;0.68;;;23.80;99.90;;;;;;5063420;28;46890;-73
2022/09/07 08:58:10;;;;;;;1.35;0.57;;;23.80;99.90;;;;;;5063558;28;45645;-73
2022/09/07 09:00:38;;;;;;;1.00;0.63;;;23.70;99.90;;;;;;5060358;28;45332;-73
2022/09/07 09:03:07;;;;;;;1.65;0.60;;;23.80;99.90;;;;;;5063672;28;45424;-73
2022/09/07 09:05:42;;;;;;;0.98;0.60;;;23.70;99.90;;;;;;5064275;28;45565;-73
2022/09/07 09:08:25;;;;;;;1.20;0.63;;;23.70;99.90;;;;;;5063665;28;45331;-73
2022/09/07 09:11:01;;;;;;;0.93;0.63;;;23.70;99.90;;;;;;5059852;28;45381;-74
2022/09/07 09:13:44;;;;;;;1.05;0.70;;;23.70;99.90;;;;;;5057541;28;45637;-73
2022/09/07 09:16:15;;;;;;;1.58;0.98;;;23.70;99.90;;;;;;5061394;28;48315;-73
2022/09/07 09:18:58;;;;;;;0.63;0.60;;;23.70;99.90;;;;;;5063442;28;45429;-74
2022/09/07 09:21:25;;;;;;;1.30;0.68;;;23.70;99.80;;;;;;5063623;28;45577;-73
2022/09/07 09:23:59;;;;;;;0.90;0.60;;;23.80;99.70;;;;;;5067871;28;45357;-73
2022/09/07 09:26:27;;;;;;;1.05;0.50;;;23.80;99.60;;;;;;5063169;28;46247;-74
2022/09/07 09:28:56;;;;;;;1.08;0.50;;;23.80;99.50;;;;;;5063543;28;45679;-74
2022/09/07 09:31:25;;;;;;;1.45;0.73;;;23.80;99.50;;;;;;5063948;28;45325;-74
2022/09/07 09:34:08;;;;;;;0.40;0.40;;;23.80;99.40;;;;;;5049409;28;45590;-73
2022/09/07 09:36:40;;;;;;;0.90;0.60;;;23.80;99.40;;;;;;5056470;28;47176;-74
2022/09/07 09:39:28;;;;;;;0.52;0.50;;;23.80;99.50;;;;;;5063682;28;45273;-73
2022/09/07 09:41:58;;;;;;;0.50;0.45;;;23.80;99.50;;;;;;5051613;28;45263;-74
2022/09/07 09:44:32;;;;;;;0.50;0.40;;;23.80;99.30;;;;;;5064036;28;45477;-74
2022/09/07 09:47:00;;;;;;;0.90;0.70;;;23.80;99.20;;;;;;5062841;28;45313;-74
2022/09/07 09:49:33;;;;;;;0.95;0.60;;;23.80;98.70;;;;;;5063135;28;45491;-73
2022/09/07 09:52:04;;;;;;;0.60;0.60;;;23.90;98.30;;;;;;5063536;28;45288;-74
2022/09/07 09:54:32;;;;;;;0.60;0.60;;;23.80;98.60;;;;;;5056136;28;45274;-74
2022/09/07 09:57:00;;;;;;;0.73;0.70;;;23.80;98.30;;;;;;5063316;28;46572;-73
2022/09/07 09:59:30;;;;;;;0.60;0.60;;;23.80;98.20;;;;;;5045601;28;45278;-74
2022/09/07 10:01:58;;;;;;;1.10;0.73;;;23.80;98.80;;;;;;5064390;28;45279;-73
2022/09/07 10:04:31;;;;;;;0.47;0.43;;;23.80;98.30;;;;;;5076497;28;45472;-74
2022/09/07 10:07:08;;;;;;;0.80;0.80;;;23.80;98.10;;;;;;5063291;28;46239;-74
2022/09/07 10:09:37;;;;;;;0.50;0.50;;;23.80;98.10;;;;;;5065882;28;45296;-73
2022/09/07 10:12:05;;;;;;;0.60;0.60;;;23.80;98.10;;;;;;5066039;28;45327;-74
2022/09/07 10:14:36;;;;;;;0.85;0.70;;;23.80;98.40;;;;;;5070045;28;45571;-73
2022/09/07 10:17:12;;;;;;;2.13;0.73;;;23.80;98.10;;;;;;5062879;28;46268;-74
2022/09/07 10:19:42;;;;;;;0.47;0.45;;;23.80;98.00;;;;;;5063133;28;45214;-73
2022/09/07 10:22:23;;;;;;;0.70;0.57;;;23.80;97.90;;;;;;5063616;28;45553;-73
2022/09/07 10:24:51;;;;;;;0.60;0.60;;;23.80;97.80;;;;;;5065106;28;45343;-74
2022/09/07 10:27:30;;;;;;;1.50;0.50;;;23.80;97.90;;;;;;5063285;28;46581;-74
2022/09/07 10:29:58;;;;;;;0.70;0.60;;;23.80;97.80;;;;;;5063426;28;45305;-74
2022/09/07 10:32:34;;;;;;;2.42;0.60;;;23.90;98.00;;;;;;5064003;28;45247;-74
2022/09/07 10:35:14;;;;;;;0.70;0.60;;;23.80;98.10;;;;;;5063537;28;45302;-74
2022/09/07 10:37:48;;;;;;;1.65;0.60;;;23.80;97.70;;;;;;5063063;28;46553;-74
2022/09/07 10:40:23;;;;;;;0.68;0.60;;;23.80;98.00;;;;;;5063384;28;45284;-74
2022/09/07 10:42:58;;;;;;;0.40;0.40;;;23.80;97.70;;;;;;5058506;28;45329;-74
2022/09/07 10:45:36;;;;;;;1.20;0.50;;;23.80;97.70;;;;;;5046491;28;45451;-74
2022/09/07 10:48:11;;;;;;;0.57;0.47;;;23.80;97.50;;;;;;5063290;28;45359;-74
2022/09/07 10:50:46;;;;;;;0.93;0.50;;;23.80;97.60;;;;;;5063712;28;45433;-74
2022/09/07 10:53:26;;;;;;;0.98;0.60;;;23.80;97.60;;;;;;5062711;28;45377;-74
2022/09/07 10:56:04;;;;;;;1.00;0.75;;;23.80;97.50;;;;;;5063471;28;45349;-73
2022/09/07 10:58:47;;;;;;;0.73;0.60;;;23.80;97.70;;;;;;5062642;28;48303;-73
2022/09/07 11:01:24;;;;;;;1.67;0.70;;;23.80;97.70;;;;;;5056126;28;45386;-74
2022/09/07 11:04:04;;;;;;;0.77;0.60;;;23.80;97.50;;;;;;5058568;28;45289;-74
2022/09/07 11:06:34;;;;;;;0.98;0.52;;;23.80;97.80;;;;;;5071240;28;45392;-74
2022/09/07 11:09:24;;;;;;;0.73;0.63;;;23.80;97.50;;;;;;5063068;28;48104;-74
2022/09/07 11:11:59;;;;;;;0.95;0.77;;;23.80;97.40;;;;;;5059880;28;45234;-73
2022/09/07 11:14:28;;;;;;;0.75;0.60;;;23.80;97.40;;;;;;5066497;28;45482;-74
2022/09/07 11:17:00;;;;;;;1.27;0.80;;;23.80;97.50;;;;;;5066610;28;45378;-74
2022/09/07 11:19:31;;;;;;;0.85;0.65;;;23.80;97.50;;;;;;5066360;28;47797;-74
2022/09/07 11:22:04;;;;;;;1.17;0.63;;;23.80;97.50;;;;;;5066983;28;45529;-74
2022/09/07 11:24:36;;;;;;;1.05;0.50;;;23.80;97.30;;;;;;5058993;28;45337;-74
2022/09/07 11:27:09;;;;;;;1.40;0.70;;;23.80;97.40;;;;;;5066924;28;45312;-74
2022/09/07 11:29:43;;;;;;;2.25;0.73;;;23.80;97.40;;;;;;5066311;28;46436;-74
2022/09/07 11:32:16;;;;;;;1.25;0.77;;;23.80;97.20;;;;;;5066675;28;45479;-74
2022/09/07 11:34:46;;;;;;;0.60;0.60;;;23.80;97.30;;;;;;5067081;28;45393;-75
2022/09/07 11:37:19;;;;;;;0.60;0.60;;;23.90;97.10;;;;;;5066456;28;45504;-73
2022/09/07 11:39:52;;;;;;;1.10;0.70;;;23.90;97.10;;;;;;5066659;28;48223;-74
2022/09/07 11:42:25;;;;;;;0.90;0.70;;;23.90;97.00;;;;;;5063158;28;45478;-74
2022/09/07 11:45:00;;;;;;;0.50;0.50;;;23.90;96.90;;;;;;5064707;28;45330;-74
2022/09/07 11:47:33;;;;;;;1.05;0.77;;;23.90;96.90;;;;;;5062895;28;45453;-74
2022/09/07 11:50:00;;;;;;;1.33;0.70;;;23.90;97.00;;;;;;5067649;28;45689;-74
2022/09/07 11:52:38;;;;;;;0.50;0.50;;;23.90;97.00;;;;;;5058579;28;45377;-74
2022/09/07 11:55:09;;;;;;;0.90;0.63;;;23.90;96.80;;;;;;5062953;28;45392;-74
2022/09/07 11:57:47;;;;;;;0.82;0.70;;;23.90;97.00;;;;;;5066611;28;45398;-74
2022/09/07 12:00:19;;;;;;;0.88;0.57;;;23.90;96.80;;;;;;5070395;28;48338;-74
2022/09/07 12:03:13;;;;;;;0.45;0.45;;;23.90;96.70;;;;;;5057473;28;45280;-74
2022/09/07 12:06:15;;;;;;;1.55;0.70;;;23.80;96.70;;;;;;5055687;28;45401;-74
2022/09/07 12:08:53;;;;;;;1.45;0.80;;;23.80;96.50;;;;;;5019003;28;45454;-75
2022/09/07 12:11:55;;;;;;;0.73;0.60;;;23.80;96.60;;;;;;5066128;28;45427;-74
2022/09/07 12:14:32;;;;;;;0.57;0.50;;;23.80;96.80;;;;;;5066848;28;45242;-74
2022/09/07 12:17:14;;;;;;;0.60;0.50;;;23.80;97.00;;;;;;5066423;28;45247;-74
2022/09/07 12:19:43;;;;;;;2.35;0.60;;;23.80;96.50;;;;;;5066470;28;45384;-74
2022/09/07 12:22:20;;;;;;;0.70;0.57;;;23.80;96.50;;;;;;5063477;28;46301;-74
2022/09/07 12:24:50;;;;;;;1.90;0.68;;;23.80;96.40;;;;;;5065430;28;45396;-74
2022/09/07 12:27:39;;;;;;;0.88;0.60;;;23.80;96.40;;;;;;5065730;28;45266;-74
2022/09/07 12:30:49;;;;;;;0.70;0.70;;;23.80;96.30;;;;;;5066223;28;45566;-75
2022/09/07 12:33:31;;;;;;;1.25;0.60;;;23.80;96.30;;;;;;5064577;28;46293;-74
2022/09/07 12:36:00;;;;;;;1.30;0.50;;;23.80;96.20;;;;;;5062375;28;45264;-74
2022/09/07 12:39:20;;;;;;;1.42;0.50;;;23.90;96.20;;;;;;5065923;28;45293;-74
2022/09/07 12:41:50;;;;;;;0.52;0.40;;;23.90;96.00;;;;;;5070399;28;45466;-74
2022/09/07 12:44:19;;;;;;;0.77;0.60;;;23.90;96.00;;;;;;5065512;28;45336;-74
2022/09/07 12:46:56;;;;;;;0.40;0.40;;;23.90;96.00;;;;;;5066139;28;45551;-74
2022/09/07 12:49:59;;;;;;;1.23;0.57;;;23.90;95.90;;;;;;5065358;28;45416;-74
2022/09/07 12:52:48;;;;;;;0.85;0.43;;;23.90;96.00;;;;;;5057153;28;45481;-74
2022/09/07 12:55:44;;;;;;;0.47;0.30;;;23.90;95.70;;;;;;5065485;28;46833;-74
2022/09/07 12:58:26;;;;;;;1.75;0.40;;;23.90;95.70;;;;;;5060832;28;45902;-75
2022/09/07 13:01:06;;;;;;;0.55;0.55;;;23.90;95.40;;;;;;5065413;28;45294;-74
2022/09/07 13:03:53;;;;;;;0.68;0.60;;;23.90;95.40;;;;;;5065538;28;45581;-74
2022/09/07 13:07:00;;;;;;;1.00;0.50;;;23.90;95.50;;;;;;5065728;28;46816;-74
2022/09/07 13:09:34;;;;;;;1.27;0.57;;;23.90;95.40;;;;;;5066308;28;45396;-74
2022/09/07 13:12:04;;;;;;;0.40;0.40;;;23.90;95.40;;;;;;5065017;28;45556;-74